Time;durP1;ratioP1;P1;durP2;ratioP2;P2;SDS_P1;SDS_P2;PMS_P1;PMS_P2;Temp;Humidity;BMP_temperature;BMP_pressure;BME280_temperature;BME280_humidity;BME280_pressure;Samples;Min_cycle;Max_cycle;Signal;HPM_P1;HPM_P2
2023/04/12 00:00:09;;;;;;;5.97;2.05;;;11.20;57.80;;;;;;5018740;28;20500;-73
2023/04/12 00:02:36;;;;;;;6.05;1.20;;;11.10;57.70;;;;;;5017790;28;20083;-73
2023/04/12 00:05:02;;;;;;;4.55;1.33;;;11.10;57.80;;;;;;5016095;28;20080;-74
2023/04/12 00:07:29;;;;;;;7.35;1.60;;;11.10;57.70;;;;;;5021304;28;20029;-74
2023/04/12 00:09:55;;;;;;;4.53;1.20;;;11.00;57.60;;;;;;5015122;28;20029;-73
2023/04/12 00:12:21;;;;;;;8.75;1.55;;;11.00;57.60;;;;;;5016997;28;20033;-73
2023/04/12 00:14:47;;;;;;;5.45;1.05;;;10.90;57.50;;;;;;5014207;28;20033;-73
2023/04/12 00:17:17;;;;;;;5.20;1.10;;;10.90;57.50;;;;;;5020344;28;20064;-74
2023/04/12 00:19:43;;;;;;;4.13;1.80;;;10.90;57.60;;;;;;5021591;28;20438;-73
2023/04/12 00:22:10;;;;;;;4.35;1.42;;;10.80;57.40;;;;;;5023949;28;20063;-74
2023/04/12 00:24:38;;;;;;;7.50;2.28;;;10.80;57.50;;;;;;5022859;28;20393;-74
2023/04/12 00:27:05;;;;;;;6.03;1.20;;;10.80;57.50;;;;;;5017238;28;20029;-75
2023/04/12 00:29:31;;;;;;;6.97;2.10;;;10.80;57.60;;;;;;5022673;28;20374;-74
2023/04/12 00:32:00;;;;;;;5.85;1.05;;;10.80;57.60;;;;;;5024455;28;20045;-74
2023/04/12 00:34:27;;;;;;;4.53;2.35;;;10.70;57.40;;;;;;5014865;28;20108;-74
2023/04/12 00:36:54;;;;;;;5.45;1.25;;;10.70;57.50;;;;;;5018238;28;20037;-74
2023/04/12 00:39:20;;;;;;;4.65;1.35;;;10.70;57.50;;;;;;5007945;28;20516;-74
2023/04/12 00:41:46;;;;;;;5.32;1.40;;;10.60;57.40;;;;;;5009583;28;20034;-74
2023/04/12 00:44:12;;;;;;;6.05;3.38;;;10.60;57.40;;;;;;5018331;28;20373;-74
2023/04/12 00:46:38;;;;;;;7.38;1.25;;;10.60;57.40;;;;;;5021001;28;20044;-74
2023/04/12 00:49:05;;;;;;;4.05;1.20;;;10.60;57.40;;;;;;5008692;28;20049;-74
2023/04/12 00:51:32;;;;;;;4.72;2.22;;;10.60;57.50;;;;;;5000810;28;20424;-73
2023/04/12 00:54:00;;;;;;;4.65;1.38;;;10.60;57.50;;;;;;5021091;28;20072;-75
2023/04/12 00:56:27;;;;;;;4.15;1.33;;;10.50;57.30;;;;;;5020329;28;20504;-74
2023/04/12 00:58:55;;;;;;;6.38;1.17;;;10.50;57.30;;;;;;5022679;28;20025;-73
2023/04/12 01:01:21;;;;;;;5.18;1.73;;;10.50;57.30;;;;;;5019054;28;20030;-76
2023/04/12 01:03:49;;;;;;;5.15;1.48;;;10.50;57.30;;;;;;5029832;28;20226;-75
2023/04/12 01:06:20;;;;;;;3.55;1.08;;;10.50;57.30;;;;;;5020562;28;20041;-75
2023/04/12 01:08:58;;;;;;;3.53;1.00;;;10.40;57.20;;;;;;5037125;28;20085;-75
2023/04/12 01:11:33;;;;;;;4.38;1.65;;;10.40;57.20;;;;;;5034799;28;20072;-76
2023/04/12 01:14:09;;;;;;;5.60;1.95;;;10.40;57.20;;;;;;5017067;28;20300;-74
2023/04/12 01:16:50;;;;;;;3.58;0.98;;;10.30;57.00;;;;;;5002596;28;20072;-74
2023/04/12 01:19:36;;;;;;;6.33;1.30;;;10.30;57.00;;;;;;5019855;28;20051;-74
2023/04/12 01:22:41;;;;;;;3.65;1.02;;;10.20;56.90;;;;;;5019909;28;20256;-75
2023/04/12 01:25:35;;;;;;;4.05;1.23;;;10.20;57.00;;;;;;5020065;28;20420;-74
2023/04/12 01:28:06;;;;;;;3.17;1.10;;;10.10;56.90;;;;;;5015405;28;20196;-74
2023/04/12 01:30:33;;;;;;;3.15;0.90;;;10.10;56.90;;;;;;5005679;28;20060;-73
2023/04/12 01:33:04;;;;;;;5.07;0.90;;;10.00;56.70;;;;;;5004715;28;20042;-74
2023/04/12 01:35:31;;;;;;;6.07;0.90;;;10.00;56.80;;;;;;4996041;28;20042;-74
2023/04/12 01:37:58;;;;;;;3.53;1.52;;;10.00;56.80;;;;;;5020915;28;20497;-74
2023/04/12 01:40:29;;;;;;;3.85;1.20;;;10.00;56.80;;;;;;5016316;28;20045;-74
2023/04/12 01:43:05;;;;;;;3.78;1.20;;;9.90;56.70;;;;;;5004991;28;20503;-74
2023/04/12 01:45:31;;;;;;;4.20;0.77;;;9.90;56.80;;;;;;5006433;28;20043;-74
2023/04/12 01:47:58;;;;;;;6.07;1.20;;;9.90;56.80;;;;;;5006419;28;20124;-74
2023/04/12 01:50:59;;;;;;;6.03;1.33;;;9.80;56.70;;;;;;5017142;28;20046;-74
2023/04/12 01:53:55;;;;;;;3.63;1.48;;;9.80;56.80;;;;;;5023561;28;20180;-74
2023/04/12 01:56:23;;;;;;;3.63;0.93;;;9.80;56.80;;;;;;5028172;28;20162;-74
2023/04/12 01:58:52;;;;;;;5.53;1.15;;;9.80;56.80;;;;;;5027369;28;20045;-74
2023/04/12 02:01:18;;;;;;;3.10;1.15;;;9.70;56.60;;;;;;5021850;28;20062;-74
2023/04/12 02:03:48;;;;;;;4.70;1.35;;;9.70;56.70;;;;;;5025293;28;20090;-74
2023/04/12 02:06:17;;;;;;;5.13;1.42;;;9.70;56.70;;;;;;5018245;28;20372;-74
2023/04/12 02:08:44;;;;;;;5.00;1.55;;;9.70;56.70;;;;;;5013287;28;20041;-74
2023/04/12 02:11:10;;;;;;;2.63;0.90;;;9.70;56.70;;;;;;5018822;28;20049;-74
2023/04/12 02:13:36;;;;;;;4.78;1.35;;;9.60;56.60;;;;;;5025678;28;20139;-75
2023/04/12 02:16:06;;;;;;;6.68;1.25;;;9.60;56.60;;;;;;5015118;28;20044;-74
2023/04/12 02:18:36;;;;;;;5.80;1.85;;;9.60;56.70;;;;;;5021095;28;20042;-75
2023/04/12 02:21:03;;;;;;;5.95;1.33;;;9.60;56.70;;;;;;5031278;28;20080;-74
2023/04/12 02:23:29;;;;;;;3.05;0.82;;;9.50;56.60;;;;;;5023217;28;20537;-74
2023/04/12 02:25:55;;;;;;;5.05;1.20;;;9.50;56.60;;;;;;5025909;28;20061;-74
2023/04/12 02:28:22;;;;;;;3.97;0.75;;;9.50;56.70;;;;;;5026234;28;20041;-74
2023/04/12 02:30:52;;;;;;;5.00;1.10;;;9.50;56.70;;;;;;5025264;28;20051;-74
2023/04/12 02:33:24;;;;;;;5.07;1.15;;;9.40;56.60;;;;;;5017407;28;20075;-74
2023/04/12 02:35:51;;;;;;;4.45;1.20;;;9.40;56.60;;;;;;5009103;28;20466;-74
2023/04/12 02:38:19;;;;;;;2.70;0.85;;;9.40;56.60;;;;;;5017832;28;20654;-74
2023/04/12 02:40:45;;;;;;;4.15;2.00;;;9.40;56.70;;;;;;5013663;28;20029;-73
2023/04/12 02:43:15;;;;;;;2.42;0.90;;;9.30;56.50;;;;;;5019300;28;20571;-74
2023/04/12 02:45:45;;;;;;;4.13;1.77;;;9.30;56.60;;;;;;5015836;28;20412;-74
2023/04/12 02:48:12;;;;;;;3.22;1.10;;;9.30;56.70;;;;;;5021266;28;20444;-74
2023/04/12 02:50:39;;;;;;;3.58;1.05;;;9.30;56.70;;;;;;5007677;28;20837;-75
2023/04/12 02:53:17;;;;;;;6.28;1.08;;;9.20;56.60;;;;;;5010357;28;20057;-74
2023/04/12 02:55:49;;;;;;;2.83;0.90;;;9.20;56.60;;;;;;5006961;28;20289;-74
2023/04/12 02:58:20;;;;;;;4.63;1.20;;;9.20;56.60;;;;;;5002528;28;20057;-74
2023/04/12 03:00:49;;;;;;;6.00;1.20;;;9.20;56.60;;;;;;5008088;28;20041;-74
2023/04/12 03:03:20;;;;;;;2.50;0.90;;;9.20;56.70;;;;;;5000028;28;20041;-74
2023/04/12 03:05:51;;;;;;;3.55;1.08;;;9.20;56.70;;;;;;5008109;28;20486;-75
2023/04/12 03:08:18;;;;;;;6.35;1.35;;;9.20;56.70;;;;;;5007233;28;20045;-75
2023/04/12 03:10:52;;;;;;;3.10;0.77;;;9.10;56.60;;;;;;5005955;28;20041;-75
2023/04/12 03:13:18;;;;;;;3.20;0.93;;;9.10;56.70;;;;;;4998863;28;20165;-74
2023/04/12 03:15:48;;;;;;;6.63;1.40;;;9.00;57.10;;;;;;5001017;28;20037;-74
2023/04/12 03:18:16;;;;;;;5.05;0.90;;;9.00;56.60;;;;;;5005106;28;20099;-73
2023/04/12 03:20:48;;;;;;;7.40;1.85;;;9.00;56.60;;;;;;5007530;28;20464;-74
2023/04/12 03:23:16;;;;;;;3.17;1.38;;;9.00;56.60;;;;;;4997227;28;20029;-74
2023/04/12 03:25:45;;;;;;;3.63;1.13;;;8.90;56.50;;;;;;5007249;28;20041;-74
2023/04/12 03:28:27;;;;;;;4.50;1.02;;;8.90;56.50;;;;;;5020847;28;20045;-73
2023/04/12 03:30:53;;;;;;;2.67;1.23;;;8.90;56.50;;;;;;5015802;28;20029;-73
2023/04/12 03:33:23;;;;;;;4.53;1.05;;;8.90;56.60;;;;;;5003985;28;20124;-74
2023/04/12 03:35:51;;;;;;;5.15;1.52;;;8.90;56.60;;;;;;5004415;28;20496;-74
2023/04/12 03:38:17;;;;;;;3.33;0.90;;;8.90;56.60;;;;;;5018132;28;20361;-74
2023/04/12 03:40:43;;;;;;;4.40;1.00;;;8.90;56.60;;;;;;5006518;28;20026;-74
2023/04/12 03:43:09;;;;;;;8.80;1.27;;;8.90;56.60;;;;;;4992067;28;20037;-73
2023/04/12 03:45:35;;;;;;;5.03;1.00;;;8.90;56.70;;;;;;4997375;28;20091;-74
2023/04/12 03:48:03;;;;;;;4.60;1.02;;;8.90;56.70;;;;;;5012769;28;20572;-74
2023/04/12 03:50:42;;;;;;;3.83;1.60;;;8.90;56.70;;;;;;5012075;28;20437;-74
2023/04/12 03:53:10;;;;;;;5.10;1.13;;;8.90;56.70;;;;;;5024907;28;20188;-74
2023/04/12 03:55:47;;;;;;;3.60;0.98;;;8.90;56.70;;;;;;5027287;28;20469;-74
2023/04/12 03:58:15;;;;;;;2.97;0.75;;;8.90;56.60;;;;;;5027132;28;20034;-74
2023/04/12 04:00:43;;;;;;;3.88;0.90;;;8.90;56.60;;;;;;5027939;28;20041;-74
2023/04/12 04:03:10;;;;;;;4.88;1.73;;;8.90;56.60;;;;;;5024222;28;20091;-74
2023/04/12 04:05:57;;;;;;;4.65;1.00;;;8.90;56.60;;;;;;5025411;28;20481;-74
2023/04/12 04:08:25;;;;;;;3.17;0.85;;;8.90;56.60;;;;;;5019834;28;20091;-74
2023/04/12 04:10:52;;;;;;;5.55;1.55;;;8.90;56.70;;;;;;4992901;28;20555;-74
2023/04/12 04:13:20;;;;;;;3.95;0.80;;;8.90;56.70;;;;;;5023690;28;20025;-74
2023/04/12 04:15:51;;;;;;;2.33;0.80;;;8.90;56.70;;;;;;5018028;28;20120;-75
2023/04/12 04:18:18;;;;;;;3.00;1.00;;;8.90;56.70;;;;;;5013978;28;20075;-74
2023/04/12 04:20:45;;;;;;;3.65;0.80;;;8.80;56.50;;;;;;5017976;28;20512;-74
2023/04/12 04:23:12;;;;;;;3.92;2.05;;;8.80;56.60;;;;;;5024994;28;20091;-74
2023/04/12 04:25:40;;;;;;;4.75;1.20;;;8.80;56.60;;;;;;5023197;28;20426;-74
2023/04/12 04:28:08;;;;;;;4.07;1.02;;;8.80;56.70;;;;;;5008450;28;20095;-74
2023/04/12 04:30:37;;;;;;;3.53;0.98;;;8.70;56.50;;;;;;4994271;28;20037;-74
2023/04/12 04:33:06;;;;;;;5.00;1.10;;;8.70;56.60;;;;;;5022661;28;20515;-74
2023/04/12 04:35:33;;;;;;;6.15;1.27;;;8.70;57.20;;;;;;5025962;28;20489;-74
2023/04/12 04:38:15;;;;;;;4.80;1.23;;;8.70;56.70;;;;;;5020236;28;20431;-74
2023/04/12 04:40:42;;;;;;;5.10;1.80;;;8.60;56.60;;;;;;5026569;28;20082;-74
2023/04/12 04:43:12;;;;;;;4.43;1.20;;;8.60;56.60;;;;;;5007162;28;20030;-74
2023/04/12 04:45:40;;;;;;;2.97;1.13;;;8.60;56.70;;;;;;5018349;28;20175;-74
2023/04/12 04:48:06;;;;;;;2.55;1.20;;;8.50;56.60;;;;;;5007960;28;20136;-74
2023/04/12 04:50:32;;;;;;;4.13;0.80;;;8.50;56.60;;;;;;5019844;28;20029;-74
2023/04/12 04:52:57;;;;;;;4.20;0.77;;;8.60;56.80;;;;;;5002621;28;20048;-74
2023/04/12 04:55:24;;;;;;;3.63;0.80;;;8.50;56.60;;;;;;5017880;28;20044;-74
2023/04/12 04:57:50;;;;;;;3.42;0.88;;;8.50;56.70;;;;;;4997297;28;20287;-74
2023/04/12 05:00:18;;;;;;;4.07;1.20;;;8.50;56.70;;;;;;5020649;28;20042;-74
2023/04/12 05:02:50;;;;;;;4.95;1.05;;;8.50;56.80;;;;;;5002284;28;20523;-74
2023/04/12 05:05:22;;;;;;;2.83;0.90;;;8.40;56.60;;;;;;5015815;28;20185;-74
2023/04/12 05:07:51;;;;;;;3.28;0.90;;;8.40;56.60;;;;;;5020122;28;20172;-74
2023/04/12 05:10:19;;;;;;;2.65;0.70;;;8.40;56.70;;;;;;5022465;28;20025;-74
2023/04/12 05:12:45;;;;;;;2.17;0.68;;;8.40;56.70;;;;;;5015190;28;20037;-74
2023/04/12 05:15:13;;;;;;;3.80;0.82;;;8.30;56.60;;;;;;5021153;28;20029;-75
2023/04/12 05:17:41;;;;;;;1.70;0.80;;;8.30;56.60;;;;;;5015086;28;20101;-75
2023/04/12 05:20:09;;;;;;;3.17;0.93;;;8.30;57.20;;;;;;5017932;28;20036;-74
2023/04/12 05:22:37;;;;;;;2.80;0.90;;;8.20;56.50;;;;;;5003713;28;20072;-74
2023/04/12 05:25:04;;;;;;;1.35;0.80;;;8.20;56.60;;;;;;5013767;28;20069;-74
2023/04/12 05:27:34;;;;;;;5.78;1.00;;;8.20;56.60;;;;;;5024550;28;20232;-74
2023/04/12 05:30:05;;;;;;;1.48;0.75;;;8.20;56.70;;;;;;5012970;28;20025;-73
2023/04/12 05:32:31;;;;;;;2.38;0.68;;;8.20;56.70;;;;;;5017883;28;20041;-74
2023/04/12 05:34:57;;;;;;;3.30;0.70;;;8.20;56.70;;;;;;5004294;28;20137;-74
2023/04/12 05:37:23;;;;;;;1.55;0.80;;;8.10;56.60;;;;;;5003566;28;20086;-75
2023/04/12 05:39:51;;;;;;;1.35;0.80;;;8.10;56.60;;;;;;5010040;28;20029;-74
2023/04/12 05:42:18;;;;;;;3.00;1.00;;;8.10;56.60;;;;;;5013416;28;20038;-74
2023/04/12 05:44:44;;;;;;;3.97;0.88;;;8.10;56.60;;;;;;5018914;28;20033;-74
2023/04/12 05:47:13;;;;;;;3.72;1.20;;;8.10;56.60;;;;;;5010065;28;20237;-73
2023/04/12 05:49:39;;;;;;;3.83;0.77;;;8.10;56.60;;;;;;4987596;28;20828;-74
2023/04/12 05:52:08;;;;;;;2.25;0.65;;;8.10;56.60;;;;;;5000344;28;20053;-72
2023/04/12 05:54:35;;;;;;;3.83;1.10;;;8.10;56.50;;;;;;5000083;28;20043;-72
2023/04/12 05:57:02;;;;;;;3.88;1.17;;;8.20;56.70;;;;;;4986814;28;20135;-73
2023/04/12 05:59:29;;;;;;;3.28;1.05;;;8.20;56.60;;;;;;5001805;28;20030;-74
2023/04/12 06:01:55;;;;;;;3.92;1.02;;;8.30;56.60;;;;;;4991761;28;20431;-74
2023/04/12 06:04:22;;;;;;;4.13;0.93;;;8.40;56.50;;;;;;4999766;28;20386;-73
2023/04/12 06:06:48;;;;;;;2.20;1.00;;;8.50;56.50;;;;;;4973173;28;20563;-73
2023/04/12 06:09:14;;;;;;;4.15;1.45;;;8.50;56.40;;;;;;4997174;28;20037;-75
2023/04/12 06:11:41;;;;;;;6.43;1.45;;;8.60;56.50;;;;;;5013316;28;20479;-74
2023/04/12 06:14:09;;;;;;;4.22;1.58;;;8.60;56.50;;;;;;4988733;28;20440;-74
2023/04/12 06:16:34;;;;;;;8.10;1.88;;;8.60;56.80;;;;;;4998601;28;20063;-73
2023/04/12 06:19:00;;;;;;;5.43;1.27;;;8.70;57.40;;;;;;4985820;28;20379;-75
2023/04/12 06:21:27;;;;;;;3.97;0.95;;;8.80;57.80;;;;;;5005633;28;20037;-74
2023/04/12 06:23:53;;;;;;;4.10;1.75;;;8.90;58.20;;;;;;5000293;28;20348;-74
2023/04/12 06:26:19;;;;;;;3.25;1.00;;;9.00;58.60;;;;;;5016869;28;20757;-72
2023/04/12 06:28:45;;;;;;;3.95;1.20;;;9.20;59.10;;;;;;4998559;28;20073;-74
2023/04/12 06:31:11;;;;;;;4.03;0.90;;;9.30;59.50;;;;;;5000364;28;20434;-78
2023/04/12 06:33:39;;;;;;;4.47;1.00;;;9.40;59.90;;;;;;5001803;28;20489;-78
2023/04/12 06:36:08;;;;;;;3.38;0.85;;;9.60;60.40;;;;;;4997678;28;20314;-78
2023/04/12 06:38:34;;;;;;;3.55;0.95;;;9.80;60.80;;;;;;5004225;28;20052;-78
2023/04/12 06:41:00;;;;;;;3.55;0.90;;;10.00;61.00;;;;;;5010901;28;20050;-77
2023/04/12 06:43:26;;;;;;;4.47;1.20;;;10.20;61.20;;;;;;5009453;28;20564;-77
2023/04/12 06:45:52;;;;;;;4.15;0.90;;;10.40;61.40;;;;;;5013985;28;20116;-77
2023/04/12 06:48:18;;;;;;;2.80;1.17;;;10.60;61.50;;;;;;5013445;28;20284;-77
2023/04/12 06:50:44;;;;;;;1.85;0.60;;;10.80;61.70;;;;;;5005212;28;20775;-76
2023/04/12 06:53:12;;;;;;;3.80;0.73;;;11.00;61.80;;;;;;5011276;28;20072;-75
2023/04/12 06:55:38;;;;;;;3.42;0.85;;;11.10;61.70;;;;;;5013194;28;20072;-75
2023/04/12 06:58:04;;;;;;;2.25;0.70;;;11.30;61.90;;;;;;5001349;28;20120;-74
2023/04/12 07:00:30;;;;;;;2.80;1.05;;;11.50;62.40;;;;;;5001996;28;20117;-76
2023/04/12 07:02:56;;;;;;;2.65;0.63;;;12.00;62.90;;;;;;5009316;28;20041;-74
2023/04/12 07:05:22;;;;;;;4.22;0.77;;;12.50;62.80;;;;;;5013245;28;20041;-75
2023/04/12 07:07:48;;;;;;;4.57;0.95;;;12.90;62.40;;;;;;5016290;28;20048;-75
2023/04/12 07:10:14;;;;;;;1.90;0.60;;;13.40;62.20;;;;;;5013264;28;20037;-75
2023/04/12 07:12:40;;;;;;;2.95;1.05;;;13.70;61.70;;;;;;5004130;28;20489;-75
2023/04/12 07:15:07;;;;;;;2.28;0.80;;;14.00;61.10;;;;;;5007577;28;20485;-74
2023/04/12 07:17:33;;;;;;;2.67;0.70;;;14.00;60.30;;;;;;5016101;28;20037;-74
2023/04/12 07:20:00;;;;;;;1.45;1.20;;;14.00;60.00;;;;;;5004484;28;20034;-75
2023/04/12 07:22:26;;;;;;;1.80;0.70;;;13.90;59.80;;;;;;5001696;28;20120;-74
2023/04/12 07:24:52;;;;;;;2.25;0.80;;;13.80;59.70;;;;;;5005558;28;20771;-74
2023/04/12 07:27:18;;;;;;;2.80;0.80;;;13.60;59.60;;;;;;5010555;28;20045;-74
2023/04/12 07:29:44;;;;;;;2.97;0.80;;;13.40;59.50;;;;;;5021165;28;20524;-74
2023/04/12 07:32:10;;;;;;;3.63;0.98;;;13.30;59.60;;;;;;5025852;28;20152;-74
2023/04/12 07:34:38;;;;;;;6.07;1.33;;;13.30;59.80;;;;;;5025493;28;20107;-74
2023/04/12 07:37:05;;;;;;;4.00;1.60;;;13.20;59.70;;;;;;5014655;28;20185;-74
2023/04/12 07:39:33;;;;;;;2.25;0.88;;;13.20;59.90;;;;;;5032696;28;20037;-74
2023/04/12 07:42:00;;;;;;;3.45;0.80;;;13.30;60.00;;;;;;5043209;28;20075;-75
2023/04/12 07:44:26;;;;;;;5.15;0.70;;;13.30;60.00;;;;;;5038095;28;20038;-74
2023/04/12 07:46:52;;;;;;;4.95;0.70;;;13.50;60.10;;;;;;5035923;28;20493;-74
2023/04/12 07:49:18;;;;;;;3.92;1.10;;;13.60;60.40;;;;;;5027699;28;20057;-75
2023/04/12 07:51:45;;;;;;;1.98;1.02;;;13.70;59.90;;;;;;5028474;28;20495;-74
2023/04/12 07:54:12;;;;;;;2.33;1.20;;;13.90;59.90;;;;;;5012716;28;20177;-73
2023/04/12 07:56:38;;;;;;;2.63;0.85;;;14.00;59.70;;;;;;5017059;28;20037;-74
2023/04/12 07:59:04;;;;;;;2.20;0.77;;;14.20;59.70;;;;;;5021293;28;20037;-74
2023/04/12 08:01:30;;;;;;;4.60;1.20;;;14.30;59.70;;;;;;5021248;28;20045;-74
2023/04/12 08:03:58;;;;;;;3.42;1.20;;;14.30;59.50;;;;;;4997407;28;20500;-75
2023/04/12 08:06:25;;;;;;;3.50;1.00;;;14.30;59.30;;;;;;5018534;28;20520;-74
2023/04/12 08:08:51;;;;;;;2.83;1.45;;;14.20;59.20;;;;;;5017785;28;20284;-74
2023/04/12 08:11:16;;;;;;;1.15;0.77;;;14.10;59.10;;;;;;5019621;28;20487;-74
2023/04/12 08:13:42;;;;;;;2.47;0.80;;;14.10;59.20;;;;;;5000591;28;20112;-73
2023/04/12 08:16:08;;;;;;;5.95;1.05;;;14.10;59.40;;;;;;5017421;28;20120;-75
2023/04/12 08:18:34;;;;;;;2.95;0.90;;;14.10;59.40;;;;;;5001368;28;20063;-73
2023/04/12 08:21:00;;;;;;;1.30;0.70;;;14.10;59.60;;;;;;5018580;28;20033;-74
2023/04/12 08:23:27;;;;;;;1.83;1.10;;;14.10;59.60;;;;;;5001479;28;20060;-75
2023/04/12 08:26:01;;;;;;;4.18;1.23;;;14.10;59.60;;;;;;5002478;28;20118;-75
2023/04/12 08:28:27;;;;;;;1.60;0.65;;;14.10;59.60;;;;;;5012828;28;20072;-74
2023/04/12 08:30:53;;;;;;;1.42;0.75;;;14.20;59.80;;;;;;5013423;28;20042;-73
2023/04/12 08:33:19;;;;;;;2.42;1.05;;;14.20;59.70;;;;;;5020072;28;20037;-74
2023/04/12 08:35:45;;;;;;;2.85;0.77;;;14.20;59.80;;;;;;5011922;28;20056;-76
2023/04/12 08:38:11;;;;;;;3.60;1.10;;;14.20;59.80;;;;;;4982124;28;20052;-75
2023/04/12 08:40:40;;;;;;;2.25;0.60;;;14.40;60.00;;;;;;4991487;28;20037;-74
2023/04/12 08:43:07;;;;;;;2.00;0.70;;;14.50;60.00;;;;;;5006801;28;20065;-74
2023/04/12 08:45:35;;;;;;;2.15;0.80;;;14.50;59.80;;;;;;5019662;28;20493;-75
2023/04/12 08:48:04;;;;;;;4.05;1.00;;;14.60;59.70;;;;;;4963671;28;1120393;-75
2023/04/12 08:50:31;;;;;;;3.83;1.00;;;14.70;59.90;;;;;;5014482;28;20053;-74
2023/04/12 08:52:58;;;;;;;2.28;0.80;;;14.90;60.00;;;;;;5007720;28;20041;-74
2023/04/12 08:55:24;;;;;;;3.42;0.90;;;15.20;60.00;;;;;;5017823;28;20030;-74
2023/04/12 08:57:54;;;;;;;1.88;0.82;;;15.40;59.90;;;;;;5019505;28;20393;-75
2023/04/12 09:00:22;;;;;;;5.13;1.75;;;15.50;59.50;;;;;;5016064;28;20037;-75
2023/04/12 09:02:48;;;;;;;3.72;0.98;;;15.70;59.60;;;;;;5003330;28;20144;-76
2023/04/12 09:05:14;;;;;;;2.13;1.20;;;15.70;59.30;;;;;;5014153;28;20485;-76
2023/04/12 09:07:41;;;;;;;3.35;1.00;;;15.90;59.50;;;;;;5010186;28;20042;-75
2023/04/12 09:10:07;;;;;;;1.80;0.68;;;16.10;59.60;;;;;;4994772;28;20045;-76
2023/04/12 09:12:33;;;;;;;1.35;1.02;;;16.40;59.60;;;;;;4994729;28;20092;-75
2023/04/12 09:15:12;;;;;;;1.92;1.27;;;16.80;59.40;;;;;;4995868;28;20352;-75
2023/04/12 09:17:39;;;;;;;2.53;1.15;;;17.10;59.00;;;;;;5009716;28;20559;-76
2023/04/12 09:20:26;;;;;;;2.30;0.65;;;17.40;58.80;;;;;;5016535;28;20042;-75
2023/04/12 09:22:54;;;;;;;5.05;1.75;;;17.70;58.20;;;;;;5008911;28;20494;-75
2023/04/12 09:25:36;;;;;;;3.05;1.00;;;17.90;58.20;;;;;;5013196;28;20041;-76
2023/04/12 09:28:05;;;;;;;3.45;0.82;;;18.10;57.90;;;;;;5012462;28;20590;-75
2023/04/12 09:30:41;;;;;;;2.35;0.90;;;18.20;57.70;;;;;;5018342;28;20458;-75
2023/04/12 09:33:11;;;;;;;4.63;1.10;;;18.40;57.40;;;;;;5012632;28;20501;-75
2023/04/12 09:35:37;;;;;;;5.22;1.10;;;18.40;56.90;;;;;;5010762;28;20044;-76
2023/04/12 09:38:07;;;;;;;2.17;0.95;;;18.50;56.80;;;;;;4993626;28;20036;-78
2023/04/12 09:40:35;;;;;;;4.78;1.38;;;18.50;56.60;;;;;;4984708;28;20420;-77
2023/04/12 09:43:02;;;;;;;4.00;1.00;;;18.40;56.40;;;;;;5008928;28;20048;-74
2023/04/12 09:45:30;;;;;;;1.80;0.80;;;18.30;56.20;;;;;;4997422;28;20045;-75
2023/04/12 09:47:56;;;;;;;2.72;1.40;;;18.20;56.00;;;;;;5014413;28;20061;-75
2023/04/12 09:50:28;;;;;;;2.65;1.10;;;18.20;55.90;;;;;;5007038;28;20208;-76
2023/04/12 09:52:57;;;;;;;3.38;1.48;;;18.20;55.70;;;;;;5007429;28;20050;-76
2023/04/12 09:55:25;;;;;;;2.45;1.13;;;18.20;55.50;;;;;;5012335;28;20041;-76
2023/04/12 09:57:53;;;;;;;4.88;1.55;;;18.10;55.20;;;;;;5017563;28;20570;-77
2023/04/12 10:00:22;;;;;;;3.85;1.30;;;18.00;55.00;;;;;;5021594;28;20038;-76
2023/04/12 10:02:50;;;;;;;5.43;2.00;;;17.90;55.00;;;;;;4995381;28;20530;-75
2023/04/12 10:05:18;;;;;;;5.03;1.52;;;17.80;54.80;;;;;;5012669;28;20062;-76
2023/04/12 10:07:45;;;;;;;6.45;1.60;;;17.70;54.60;;;;;;5016235;28;20034;-76
2023/04/12 10:10:13;;;;;;;5.65;1.70;;;17.60;54.30;;;;;;5013387;28;20040;-77
2023/04/12 10:12:40;;;;;;;3.92;1.08;;;17.70;54.40;;;;;;4991095;28;20096;-75
2023/04/12 10:15:19;;;;;;;6.55;1.40;;;17.70;54.20;;;;;;5014452;28;20034;-75
2023/04/12 10:17:53;;;;;;;4.30;0.90;;;17.70;54.00;;;;;;4993732;28;20072;-75
2023/04/12 10:20:20;;;;;;;;;;;17.70;53.90;;;;;;4992059;28;20025;-76
2023/04/12 10:22:48;;;;;;;4.88;0.98;;;17.70;54.10;;;;;;5016862;28;19944;-75
2023/04/12 10:25:17;;;;;;;2.97;1.33;;;17.80;54.20;;;;;;5002059;28;20453;-75
2023/04/12 10:27:44;;;;;;;6.78;1.80;;;17.90;54.10;;;;;;5012991;28;20112;-77
2023/04/12 10:30:27;;;;;;;3.83;1.05;;;18.00;54.00;;;;;;5010545;28;20529;-75
2023/04/12 10:33:05;;;;;;;4.30;1.20;;;18.20;53.70;;;;;;5004167;28;20053;-76
2023/04/12 10:35:49;;;;;;;5.68;1.33;;;18.40;53.60;;;;;;4996733;28;20065;-76
2023/04/12 10:38:16;;;;;;;3.08;1.20;;;18.60;53.30;;;;;;5017088;28;20524;-75
2023/04/12 10:41:06;;;;;;;3.85;1.15;;;18.80;53.50;;;;;;5011447;28;20642;-76
2023/04/12 10:43:32;;;;;;;4.47;0.88;;;19.00;53.20;;;;;;5011689;28;20025;-75
2023/04/12 10:46:03;;;;;;;5.07;1.38;;;19.10;53.10;;;;;;5003705;28;20484;-75
2023/04/12 10:48:51;;;;;;;8.80;2.17;;;19.00;52.80;;;;;;5017010;28;20145;-74
2023/04/12 10:51:29;;;;;;;3.25;1.00;;;18.80;52.50;;;;;;5010289;28;20049;-75
2023/04/12 10:54:15;;;;;;;5.07;1.45;;;18.50;52.60;;;;;;4998525;28;20313;-76
2023/04/12 10:56:43;;;;;;;5.68;1.67;;;18.20;52.50;;;;;;5017071;28;20057;-76
2023/04/12 10:59:15;;;;;;;5.45;2.15;;;17.90;52.50;;;;;;4991092;28;20099;-75
2023/04/12 11:02:10;;;;;;;3.85;1.13;;;17.70;52.60;;;;;;4990647;28;20036;-75
2023/04/12 11:04:36;;;;;;;1.92;1.23;;;17.40;52.40;;;;;;5010244;28;20034;-75
2023/04/12 11:07:10;;;;;;;4.20;1.27;;;17.20;52.60;;;;;;4992626;28;20047;-75
2023/04/12 11:09:47;;;;;;;4.30;1.13;;;17.00;52.70;;;;;;5013959;28;20064;-75
2023/04/12 11:12:26;;;;;;;2.72;1.20;;;16.80;52.70;;;;;;4996013;28;20049;-76
2023/04/12 11:14:59;;;;;;;2.67;0.82;;;16.60;52.60;;;;;;5009187;28;20386;-76
2023/04/12 11:17:27;;;;;;;3.22;1.10;;;16.40;52.60;;;;;;4993098;28;20133;-74
2023/04/12 11:19:59;;;;;;;3.45;1.10;;;16.30;52.80;;;;;;5011070;28;20037;-74
2023/04/12 11:22:27;;;;;;;4.10;1.38;;;16.20;52.90;;;;;;5013512;28;20033;-75
2023/04/12 11:24:58;;;;;;;3.20;0.80;;;16.10;52.90;;;;;;5016281;28;20068;-75
2023/04/12 11:27:26;;;;;;;2.25;0.77;;;16.10;53.00;;;;;;5018280;28;20231;-74
2023/04/12 11:29:54;;;;;;;3.67;1.55;;;16.10;53.10;;;;;;5011637;28;20029;-74
2023/04/12 11:32:23;;;;;;;2.58;1.13;;;16.10;53.20;;;;;;5014680;28;20360;-74
2023/04/12 11:34:49;;;;;;;2.80;0.80;;;16.20;53.50;;;;;;5008510;28;20120;-74
2023/04/12 11:37:19;;;;;;;2.97;0.70;;;16.20;53.50;;;;;;5014964;28;20168;-74
2023/04/12 11:39:47;;;;;;;1.05;0.40;;;16.20;53.40;;;;;;5012507;28;20080;-74
2023/04/12 11:42:22;;;;;;;2.17;0.77;;;16.40;53.70;;;;;;5020118;28;20167;-74
2023/04/12 11:44:48;;;;;;;3.17;1.00;;;16.50;53.50;;;;;;5012268;28;20039;-74
2023/04/12 11:47:18;;;;;;;2.22;1.20;;;16.70;53.60;;;;;;5001372;28;20229;-74
2023/04/12 11:49:49;;;;;;;1.73;0.60;;;16.80;53.60;;;;;;5003058;28;20336;-75
2023/04/12 11:52:17;;;;;;;1.63;0.80;;;16.80;53.50;;;;;;5008692;28;20077;-74
2023/04/12 11:54:48;;;;;;;3.30;0.70;;;17.00;53.70;;;;;;4993826;28;20030;-74
2023/04/12 11:57:16;;;;;;;1.63;0.50;;;17.10;53.70;;;;;;5016635;28;20269;-75
2023/04/12 11:59:44;;;;;;;2.22;1.00;;;17.30;53.80;;;;;;5015515;28;20041;-74
2023/04/12 12:02:11;;;;;;;5.80;0.88;;;17.50;53.80;;;;;;4994728;28;20393;-74
2023/04/12 12:04:37;;;;;;;1.60;0.50;;;17.70;53.80;;;;;;5012527;28;20053;-74
2023/04/12 12:07:05;;;;;;;1.83;0.70;;;18.00;53.80;;;;;;5016643;28;20072;-74
2023/04/12 12:09:31;;;;;;;1.80;0.55;;;18.00;53.50;;;;;;4993411;28;20555;-73
2023/04/12 12:11:57;;;;;;;3.05;1.25;;;18.00;53.40;;;;;;5009822;28;20413;-75
2023/04/12 12:14:24;;;;;;;3.28;0.98;;;18.10;53.60;;;;;;5015571;28;20030;-75
2023/04/12 12:16:55;;;;;;;2.05;0.60;;;18.20;53.70;;;;;;4996782;28;20548;-74
2023/04/12 12:19:35;;;;;;;4.25;1.27;;;18.30;53.60;;;;;;5015191;28;20041;-74
2023/04/12 12:22:17;;;;;;;2.60;1.00;;;18.50;53.30;;;;;;5017016;28;20037;-74
2023/04/12 12:24:56;;;;;;;3.08;1.20;;;18.60;53.00;;;;;;5001612;28;20112;-75
2023/04/12 12:27:37;;;;;;;2.40;0.82;;;18.60;53.00;;;;;;5021258;28;20033;-74
2023/04/12 12:30:06;;;;;;;3.65;1.10;;;18.40;52.40;;;;;;5010896;28;20115;-72
2023/04/12 12:32:36;;;;;;;1.70;0.70;;;18.20;52.40;;;;;;5014842;28;20041;-74
2023/04/12 12:35:08;;;;;;;3.45;1.10;;;18.00;52.40;;;;;;5020435;28;20044;-72
2023/04/12 12:37:34;;;;;;;2.83;0.70;;;17.70;52.30;;;;;;5006013;28;20118;-73
2023/04/12 12:40:14;;;;;;;2.75;1.20;;;17.40;52.10;;;;;;5011543;28;20045;-73
2023/04/12 12:42:44;;;;;;;5.57;1.33;;;17.20;52.00;;;;;;4983361;28;20046;-74
2023/04/12 12:45:11;;;;;;;3.42;1.10;;;17.00;52.10;;;;;;5011124;28;20045;-74
2023/04/12 12:47:49;;;;;;;4.80;1.13;;;16.90;52.20;;;;;;4986210;28;20904;-73
2023/04/12 12:50:17;;;;;;;5.38;1.05;;;16.80;52.20;;;;;;5016734;28;20040;-75
2023/04/12 12:52:45;;;;;;;5.32;1.42;;;16.80;52.30;;;;;;5018242;28;20181;-72
2023/04/12 12:55:12;;;;;;;3.67;1.50;;;16.60;52.10;;;;;;5017809;28;20099;-74
2023/04/12 12:57:38;;;;;;;3.30;1.00;;;16.60;52.10;;;;;;5019635;28;20033;-74
2023/04/12 13:00:05;;;;;;;5.03;1.42;;;16.40;51.90;;;;;;5016654;28;20033;-74